createdAt,value
2023-05-25T00:03:32.380Z,100973.19
2023-05-25T00:08:35.798Z,100972.94
2023-05-25T00:13:38.554Z,100971.84
2023-05-25T00:18:43.409Z,100977.66
2023-05-25T00:23:46.226Z,100977.06
2023-05-25T00:28:49.188Z,100977.16
2023-05-25T00:33:53.346Z,100982.88
2023-05-25T00:38:56.269Z,100982.69
2023-05-25T00:43:59.076Z,100993.44
2023-05-25T00:49:03.300Z,100985.94
2023-05-25T00:54:06.423Z,100986.66
2023-05-25T00:59:09.428Z,100991.78
2023-05-25T01:04:15.498Z,100999.41
2023-05-25T01:09:19.505Z,100995.66
2023-05-25T01:14:22.974Z,100988.91
2023-05-25T01:19:28.471Z,100984.75
2023-05-25T01:24:36.431Z,100992.25
2023-05-25T01:29:41.443Z,100990.78
2023-05-25T01:34:44.704Z,100995.00
2023-05-25T01:39:48.940Z,100989.91
2023-05-25T01:44:51.999Z,100992.66
2023-05-25T01:50:00.765Z,100992.06
2023-05-25T01:55:08.331Z,100994.28
2023-05-25T02:00:14.417Z,100986.72
2023-05-25T02:05:17.296Z,100988.03
2023-05-25T02:10:23.199Z,100996.88
2023-05-25T02:15:26.009Z,100993.75
2023-05-25T02:20:29.196Z,100993.19
2023-05-25T02:25:33.389Z,100996.41
2023-05-25T02:30:36.360Z,100993.53
2023-05-25T02:35:39.303Z,100992.56
2023-05-25T02:40:44.169Z,100988.34
2023-05-25T02:45:47.037Z,100988.81
2023-05-25T02:50:50.041Z,100987.16
2023-05-25T02:55:54.175Z,100981.91
2023-05-25T03:01:00.799Z,100996.47
2023-05-25T03:06:05.125Z,100994.53
2023-05-25T03:11:09.746Z,101000.25
2023-05-25T03:16:12.937Z,101010.06
2023-05-25T03:21:16.325Z,101003.41
2023-05-25T03:26:21.254Z,101006.66
2023-05-25T03:31:25.527Z,101002.81
2023-05-25T03:36:30.880Z,101010.00
2023-05-25T03:41:35.132Z,101013.34
2023-05-25T03:46:38.133Z,101031.53
2023-05-25T03:51:41.607Z,101037.25
2023-05-25T03:56:45.960Z,101031.91
2023-05-25T04:01:48.750Z,101040.81
2023-05-25T04:06:51.835Z,101040.44
2023-05-25T04:11:56.169Z,101047.78
2023-05-25T04:16:59.259Z,101049.78
2023-05-25T04:22:02.159Z,101065.03
2023-05-25T04:27:07.278Z,101064.66
2023-05-25T04:32:10.693Z,101062.31
2023-05-25T04:37:21.527Z,101065.69
2023-05-25T04:42:26.905Z,101061.25
2023-05-25T04:47:31.314Z,101055.84
2023-05-25T04:52:34.194Z,101063.63
2023-05-25T04:57:38.716Z,101067.38
2023-05-25T05:02:41.714Z,101060.28
2023-05-25T05:07:45.031Z,101065.28
2023-05-25T05:12:49.646Z,101062.22
2023-05-25T05:17:52.506Z,101077.06
2023-05-25T05:22:55.470Z,101079.53
2023-05-25T05:27:59.942Z,101084.22
2023-05-25T05:33:09.664Z,101090.81
2023-05-25T05:38:20.399Z,101094.47
2023-05-25T05:43:25.243Z,101107.44
2023-05-25T05:48:28.922Z,101104.22
2023-05-25T05:53:32.348Z,101108.31
2023-05-25T05:58:36.873Z,101114.94
2023-05-25T06:03:40.872Z,101107.44
2023-05-25T06:08:44.419Z,101117.47
2023-05-25T06:13:50.022Z,101118.56
2023-05-25T06:18:54.185Z,101121.06
2023-05-25T06:23:58.019Z,101126.66
2023-05-25T06:29:02.500Z,101120.38
2023-05-25T06:34:05.643Z,101121.22
2023-05-25T06:39:08.724Z,101110.69
2023-05-25T06:44:13.067Z,101114.16
2023-05-25T06:49:21.791Z,101110.84
2023-05-25T06:54:24.688Z,101110.97
2023-05-25T06:59:28.917Z,101112.63
2023-05-25T07:04:33.048Z,101114.53
2023-05-25T07:09:36.137Z,101120.84
2023-05-25T07:14:40.334Z,101115.53
2023-05-25T07:19:43.419Z,101109.50
2023-05-25T07:24:46.937Z,101112.59
2023-05-25T07:29:51.291Z,101119.97
2023-05-25T07:34:55.493Z,101118.56
2023-05-25T07:39:58.329Z,101114.81
2023-05-25T07:45:02.993Z,101110.09
2023-05-25T07:50:06.932Z,101113.34
2023-05-25T07:55:10.869Z,101111.19
2023-05-25T08:00:16.205Z,101120.84
2023-05-25T08:05:19.833Z,101122.28
2023-05-25T08:10:23.439Z,101124.38
2023-05-25T08:15:27.877Z,101119.19
2023-05-25T08:20:30.808Z,101117.19
2023-05-25T08:25:33.733Z,101127.28
2023-05-25T08:30:38.135Z,101113.78
2023-05-25T08:35:43.200Z,101119.44
2023-05-25T08:40:46.644Z,101124.25
2023-05-25T08:45:51.501Z,101128.56
2023-05-25T08:50:54.567Z,101124.00
2023-05-25T08:55:57.800Z,101133.34
2023-05-25T09:01:04.875Z,101128.34
2023-05-25T09:06:08.384Z,101131.38
2023-05-25T09:11:16.214Z,101136.38
2023-05-25T09:16:21.753Z,101149.63
2023-05-25T09:21:24.552Z,101149.28
2023-05-25T09:26:27.638Z,101150.47
2023-05-25T09:31:32.607Z,101148.16
2023-05-25T09:36:35.620Z,101151.31
2023-05-25T09:41:38.551Z,101154.44
2023-05-25T09:46:45.062Z,101152.31
2023-05-25T09:51:49.130Z,101154.75
2023-05-25T09:56:52.792Z,101150.97
2023-05-25T10:01:57.884Z,101153.28
2023-05-25T10:07:02.017Z,101163.91
2023-05-25T10:12:05.068Z,101162.75
2023-05-25T10:17:12.449Z,101162.41
2023-05-25T10:22:17.549Z,101149.97
2023-05-25T10:27:27.094Z,101147.13
2023-05-25T10:32:33.071Z,101147.66
2023-05-25T10:37:35.894Z,101148.44
2023-05-25T10:42:39.089Z,101152.41
2023-05-25T10:47:43.660Z,101145.81
2023-05-25T10:52:46.620Z,101147.81
2023-05-25T10:58:08.454Z,101143.88
2023-05-25T11:03:12.762Z,101140.44
2023-05-25T11:08:17.721Z,101134.38
2023-05-25T11:13:25.386Z,101133.56
2023-05-25T11:18:39.487Z,101123.81
2023-05-25T11:23:54.105Z,101128.06
2023-05-25T11:28:58.987Z,101120.56
2023-05-25T11:34:05.204Z,101119.09
2023-05-25T11:39:14.208Z,101114.44
2023-05-25T11:44:29.325Z,101112.75
2023-05-25T11:49:33.521Z,101110.19
2023-05-25T11:54:36.986Z,101102.59
2023-05-25T11:59:40.997Z,101099.16
2023-05-25T12:04:54.155Z,101101.72
2023-05-25T12:10:07.034Z,101097.03
2023-05-25T12:15:11.351Z,101095.94
2023-05-25T12:20:17.111Z,101096.44
2023-05-25T12:25:22.606Z,101087.19
2023-05-25T12:30:29.466Z,101085.38
2023-05-25T12:35:46.298Z,101088.66
2023-05-25T12:40:49.354Z,101081.19
2023-05-25T12:45:52.724Z,101075.69
2023-05-25T12:51:00.817Z,101076.03
2023-05-25T12:56:04.309Z,101060.66
2023-05-25T13:01:09.459Z,101051.31
2023-05-25T13:06:14.035Z,101054.72
2023-05-25T13:11:16.916Z,101059.59
2023-05-25T13:16:19.767Z,101063.63
2023-05-25T13:21:25.376Z,101060.63
2023-05-25T13:26:28.250Z,101047.75
2023-05-25T13:31:31.063Z,101057.56
2023-05-25T13:36:35.674Z,101050.63
2023-05-25T13:41:38.804Z,101041.59
2023-05-25T13:46:41.914Z,101048.47
2023-05-25T13:51:46.076Z,101037.19
2023-05-25T13:56:49.056Z,101028.88
2023-05-25T14:01:53.587Z,101027.66
2023-05-25T14:06:59.451Z,101027.50
2023-05-25T14:12:03.087Z,101017.22
2023-05-25T14:17:06.238Z,101016.28
2023-05-25T14:22:13.219Z,101011.31
2023-05-25T14:27:21.042Z,101007.09
2023-05-25T14:32:24.113Z,101006.06
2023-05-25T14:37:28.385Z,100995.66
2023-05-25T14:42:31.299Z,100985.78
2023-05-25T14:47:34.261Z,100970.69
2023-05-25T14:52:38.486Z,100969.50
2023-05-25T14:57:41.426Z,100971.03
2023-05-25T15:02:44.634Z,100962.44
2023-05-25T15:07:49.040Z,100963.53
2023-05-25T15:12:52.058Z,100959.03
2023-05-25T15:17:54.935Z,100953.22
2023-05-25T15:22:59.192Z,100954.25
2023-05-25T15:28:02.069Z,100947.47
2023-05-25T15:33:05.050Z,100944.34
2023-05-25T15:38:09.361Z,100945.50
2023-05-25T15:43:12.311Z,100933.91
2023-05-25T15:48:15.070Z,100933.38
2023-05-25T15:53:19.286Z,100920.59
2023-05-25T15:58:22.482Z,100910.19
2023-05-25T16:03:26.065Z,100905.84
2023-05-25T16:08:30.558Z,100902.06
2023-05-25T16:13:33.411Z,100908.47
2023-05-25T16:18:36.312Z,100911.06
2023-05-25T16:23:40.934Z,100921.69
2023-05-25T16:28:43.966Z,100922.00
2023-05-25T16:33:46.990Z,100921.13
2023-05-25T16:38:51.268Z,100924.22
2023-05-25T16:43:54.170Z,100928.06
2023-05-25T16:48:57.127Z,100936.09
2023-05-25T16:54:01.341Z,100931.50
2023-05-25T16:59:04.257Z,100928.56
2023-05-25T17:04:07.233Z,100926.69
2023-05-25T17:09:12.441Z,100931.53
2023-05-25T17:14:15.205Z,100937.50
2023-05-25T17:19:18.383Z,100936.59
2023-05-25T17:24:22.917Z,100929.94
2023-05-25T17:29:25.899Z,100941.09
2023-05-25T17:34:28.720Z,100945.59
2023-05-25T17:39:32.912Z,100952.25
2023-05-25T17:44:40.108Z,100947.38
2023-05-25T17:49:43.081Z,100960.91
2023-05-25T17:54:47.334Z,100956.25
2023-05-25T17:59:50.405Z,100961.03
2023-05-25T18:04:53.280Z,100964.09
2023-05-25T18:09:57.490Z,100965.75
2023-05-25T18:15:00.626Z,100976.19
2023-05-25T18:20:03.571Z,100968.88
2023-05-25T18:25:08.908Z,100975.34
2023-05-25T18:30:12.786Z,100971.13
2023-05-25T18:35:15.825Z,100976.97
2023-05-25T18:40:20.544Z,100986.38
2023-05-25T18:45:23.786Z,100983.09
2023-05-25T18:50:27.128Z,100984.91
2023-05-25T18:55:31.333Z,100988.66
2023-05-25T19:00:34.351Z,100992.59
2023-05-25T19:05:37.917Z,101000.91
2023-05-25T19:10:42.383Z,101012.59
2023-05-25T19:15:45.626Z,101014.13
2023-05-25T19:20:48.996Z,101030.44
2023-05-25T19:25:53.364Z,101038.16
2023-05-25T19:30:56.411Z,101039.59
2023-05-25T19:35:59.472Z,101048.34
2023-05-25T19:41:03.742Z,101052.56
2023-05-25T19:46:07.109Z,101053.84
2023-05-25T19:51:10.146Z,101054.81
2023-05-25T19:56:14.355Z,101053.69
2023-05-25T20:01:17.418Z,101065.53
2023-05-25T20:06:20.488Z,101057.59
2023-05-25T20:11:24.815Z,101058.63
2023-05-25T20:16:28.131Z,101069.72
2023-05-25T20:21:31.077Z,101070.72
2023-05-25T20:26:35.487Z,101077.72
2023-05-25T20:31:38.405Z,101083.38
2023-05-25T20:36:41.368Z,101096.28
2023-05-25T20:41:45.635Z,101092.50
2023-05-25T20:46:48.508Z,101093.97
2023-05-25T20:51:51.549Z,101102.91
2023-05-25T20:56:56.025Z,101111.50
2023-05-25T21:01:58.920Z,101113.66
2023-05-25T21:07:01.838Z,101111.97
2023-05-25T21:12:07.591Z,101115.78
2023-05-25T21:17:10.626Z,101111.94
2023-05-25T21:22:14.226Z,101125.13
2023-05-25T21:27:18.447Z,101123.78
2023-05-25T21:32:21.262Z,101123.22
2023-05-25T21:37:25.590Z,101115.41
2023-05-25T21:42:29.836Z,101124.44
2023-05-25T21:47:32.596Z,101114.28
2023-05-25T21:52:35.351Z,101121.81
2023-05-25T21:57:39.636Z,101127.84
2023-05-25T22:02:42.625Z,101130.00
2023-05-25T22:07:45.902Z,101135.84
2023-05-25T22:12:50.049Z,101143.34
2023-05-25T22:17:53.056Z,101146.59
2023-05-25T22:22:56.106Z,101140.72
2023-05-25T22:28:00.469Z,101142.28
2023-05-25T22:33:03.399Z,101139.72
2023-05-25T22:38:06.253Z,101131.06
2023-05-25T22:43:12.772Z,101142.19
2023-05-25T22:48:15.625Z,101150.63
2023-05-25T22:53:18.442Z,101142.75
2023-05-25T22:58:24.286Z,101141.03
2023-05-25T23:03:27.251Z,101141.06
2023-05-25T23:08:30.145Z,101142.44
2023-05-25T23:13:34.488Z,101148.75
2023-05-25T23:18:37.283Z,101140.19
2023-05-25T23:23:40.135Z,101143.69
2023-05-25T23:28:44.374Z,101137.47
2023-05-25T23:33:47.177Z,101155.25
2023-05-25T23:38:50.033Z,101159.69
2023-05-25T23:43:54.238Z,101145.88
2023-05-25T23:48:57.129Z,101151.84
2023-05-25T23:53:59.964Z,101152.66
2023-05-25T23:59:04.181Z,101149.91
